Time;durP1;ratioP1;P1;durP2;ratioP2;P2;SDS_P1;SDS_P2;PMS_P1;PMS_P2;Temp;Humidity;BMP_temperature;BMP_pressure;BME280_temperature;BME280_humidity;BME280_pressure;Samples;Min_cycle;Max_cycle;Signal;HPM_P1;HPM_P2
2023/12/30 00:02:20;;;;;;;0.30;0.30;;;;;;;2.40;87.26;97314.91;4985276;28;20054;-64
2023/12/30 00:04:47;;;;;;;0.30;0.30;;;;;;;2.44;87.95;97310.44;4986974;28;20177;-64
2023/12/30 00:07:14;;;;;;;0.30;0.30;;;;;;;2.39;89.36;97335.16;4986245;28;20057;-64
2023/12/30 00:09:41;;;;;;;0.40;0.40;;;;;;;1.67;90.21;97186.16;4986625;28;20128;-65
2023/12/30 00:12:08;;;;;;;0.40;0.40;;;;;;;1.62;90.25;97178.09;4984859;28;20050;-65
2023/12/30 00:14:34;;;;;;;0.35;0.35;;;;;;;2.51;90.03;97314.34;4986609;28;20520;-65
2023/12/30 00:17:01;;;;;;;0.35;0.35;;;;;;;2.53;90.29;97309.38;5001189;28;20068;-64
2023/12/30 00:19:28;;;;;;;0.30;0.30;;;;;;;2.57;90.15;97301.34;4986181;28;20054;-65
2023/12/30 00:21:55;;;;;;;0.30;0.30;;;;;;;2.66;90.20;97302.19;4986485;28;20046;-65
2023/12/30 00:24:22;;;;;;;0.40;0.40;;;;;;;2.54;90.23;97282.84;5000921;28;20050;-66
2023/12/30 00:26:50;;;;;;;0.40;0.40;;;;;;;2.22;89.05;97220.25;4986467;28;20468;-64
2023/12/30 00:29:16;;;;;;;0.40;0.40;;;;;;;1.83;88.53;97157.38;4986553;28;20130;-65
2023/12/30 00:31:43;;;;;;;0.30;0.30;;;;;;;2.76;88.45;97296.47;4984463;28;20050;-65
2023/12/30 00:34:10;;;;;;;0.30;0.30;;;;;;;2.77;88.28;97292.63;4985342;28;20137;-65
2023/12/30 00:36:41;;;;;;;0.30;0.30;;;;;;;2.51;88.59;97258.88;4986415;28;20050;-66
2023/12/30 00:39:08;;;;;;;0.40;0.40;;;;;;;2.82;88.38;97287.00;5000752;28;20121;-65
2023/12/30 00:41:35;;;;;;;0.30;0.30;;;;;;;2.10;88.75;97247.34;5000735;28;20406;-66
2023/12/30 00:44:02;;;;;;;0.30;0.30;;;;;;;2.79;89.22;97282.16;4986213;28;20061;-67
2023/12/30 00:46:28;;;;;;;0.30;0.30;;;;;;;2.75;88.98;97289.41;4985802;28;20257;-65
2023/12/30 00:48:55;;;;;;;0.40;0.40;;;;;;;2.76;89.13;97373.88;4985909;28;20084;-65
2023/12/30 00:51:24;;;;;;;0.40;0.40;;;;;;;2.68;88.56;97284.38;5000250;28;20054;-65
2023/12/30 00:53:50;;;;;;;0.40;0.40;;;;;;;2.35;87.69;97263.94;4972108;28;20057;-65
2023/12/30 00:56:18;;;;;;;0.40;0.40;;;;;;;2.38;86.94;97301.56;4965933;28;20133;-65
2023/12/30 00:58:45;;;;;;;0.30;0.30;;;;;;;2.34;86.43;97283.38;4953369;28;20075;-66
2023/12/30 01:01:11;;;;;;;0.40;0.40;;;;;;;2.34;86.94;97299.78;4965824;28;20077;-65
2023/12/30 01:03:40;;;;;;;0.30;0.30;;;;;;;2.28;86.88;97301.81;4980779;28;20082;-65
2023/12/30 01:06:07;;;;;;;0.40;0.40;;;;;;;1.69;87.20;97205.78;4965983;28;20524;-65
2023/12/30 01:08:34;;;;;;;0.32;0.32;;;;;;;1.97;87.11;97245.50;4965886;28;20058;-66
2023/12/30 01:11:01;;;;;;;0.30;0.30;;;;;;;2.14;87.80;97283.84;4966190;28;20438;-65
2023/12/30 01:13:28;;;;;;;0.30;0.30;;;;;;;2.30;87.91;97293.31;4966298;28;20058;-65
2023/12/30 01:15:54;;;;;;;0.38;0.38;;;;;;;1.76;88.79;97214.31;4980686;28;20575;-65
2023/12/30 01:18:21;;;;;;;0.40;0.40;;;;;;;1.93;89.22;97241.78;4965917;28;20133;-66
2023/12/30 01:20:48;;;;;;;0.40;0.40;;;;;;;2.38;89.16;97290.63;4980324;28;20050;-67
2023/12/30 01:23:15;;;;;;;0.40;0.40;;;;;;;2.42;89.29;97279.88;4965662;28;20054;-65
2023/12/30 01:25:42;;;;;;;0.40;0.40;;;;;;;1.88;89.30;97188.06;4980338;28;20058;-66
2023/12/30 01:28:09;;;;;;;0.40;0.40;;;;;;;1.98;88.94;97238.91;4980359;28;20050;-65
2023/12/30 01:30:36;;;;;;;0.30;0.30;;;;;;;1.83;89.19;97217.44;4965491;28;20518;-66
2023/12/30 01:33:04;;;;;;;0.40;0.40;;;;;;;2.21;90.44;97262.38;4965424;28;20058;-66
2023/12/30 01:35:32;;;;;;;0.40;0.40;;;;;;;1.73;90.31;97195.81;4965500;28;20055;-67
2023/12/30 01:37:59;;;;;;;0.35;0.35;;;;;;;2.23;90.41;97258.22;4965453;28;20053;-66
2023/12/30 01:40:30;;;;;;;0.30;0.30;;;;;;;1.75;92.17;97264.59;4965443;28;20145;-67
2023/12/30 01:42:58;;;;;;;0.30;0.30;;;;;;;1.56;91.81;97208.22;4965184;28;20057;-66
2023/12/30 01:45:26;;;;;;;0.30;0.30;;;;;;;1.82;90.49;97240.41;4979780;28;20490;-65
2023/12/30 01:47:53;;;;;;;0.30;0.30;;;;;;;1.94;90.37;97279.69;4993636;28;20054;-67
2023/12/30 01:50:21;;;;;;;0.30;0.30;;;;;;;1.84;91.05;97246.34;4984682;28;20407;-67
2023/12/30 01:52:48;;;;;;;0.30;0.30;;;;;;;1.69;91.86;97211.22;4984742;28;20153;-67
2023/12/30 01:55:16;;;;;;;0.32;0.32;;;;;;;1.67;91.90;97219.72;4983436;28;20133;-66
2023/12/30 01:57:44;;;;;;;0.30;0.30;;;;;;;1.67;92.21;97213.44;4984921;28;20484;-66
2023/12/30 02:00:17;;;;;;;0.30;0.30;;;;;;;1.54;91.97;97182.38;4984902;28;20050;-66
2023/12/30 02:02:44;;;;;;;0.30;0.30;;;;;;;1.94;92.55;97257.03;4999938;28;20054;-65
2023/12/30 02:05:11;;;;;;;0.30;0.30;;;;;;;2.09;92.71;97259.38;4984370;28;20065;-66
2023/12/30 02:07:40;;;;;;;0.30;0.30;;;;;;;1.37;93.49;97133.94;4982947;28;20085;-65
2023/12/30 02:10:08;;;;;;;0.30;0.30;;;;;;;1.60;93.17;97180.34;4984138;28;20807;-65
2023/12/30 02:12:35;;;;;;;0.30;0.30;;;;;;;1.87;93.54;97234.81;4984587;28;20077;-66
2023/12/30 02:15:15;;;;;;;0.30;0.30;;;;;;;1.97;94.72;97250.94;4984678;28;20184;-65
2023/12/30 02:17:42;;;;;;;0.30;0.30;;;;;;;1.93;93.91;97249.97;4984602;28;20094;-66
2023/12/30 02:20:10;;;;;;;0.30;0.30;;;;;;;2.00;94.02;97255.78;4984028;28;20058;-66
2023/12/30 02:22:43;;;;;;;0.30;0.30;;;;;;;2.04;93.67;97243.94;4984559;28;20058;-66
2023/12/30 02:25:10;;;;;;;;;;;;;;;2.05;93.41;97252.94;4984893;28;20379;-66
2023/12/30 02:27:36;;;;;;;0.30;0.30;;;;;;;1.04;93.70;97110.69;4983974;28;20498;-66
2023/12/30 02:30:04;;;;;;;0.30;0.30;;;;;;;1.94;94.17;97254.31;4982865;28;20047;-67
2023/12/30 02:32:31;;;;;;;0.30;0.30;;;;;;;1.26;92.20;97121.66;4984650;28;20360;-66
2023/12/30 02:34:58;;;;;;;0.30;0.30;;;;;;;2.13;91.64;97269.41;4984202;28;20116;-66
2023/12/30 02:37:25;;;;;;;0.30;0.30;;;;;;;2.00;92.33;97266.72;4982827;28;20046;-66
2023/12/30 02:39:51;;;;;;;0.30;0.30;;;;;;;1.17;92.65;97128.13;4984674;28;20448;-66
2023/12/30 02:42:18;;;;;;;0.30;0.30;;;;;;;1.90;92.97;97256.06;4984749;28;20104;-66
2023/12/30 02:44:45;;;;;;;0.30;0.30;;;;;;;1.52;92.93;97190.88;4984436;28;20054;-66
2023/12/30 02:47:12;;;;;;;0.30;0.30;;;;;;;1.98;92.91;97266.22;4982518;28;20046;-65
2023/12/30 02:49:43;;;;;;;0.40;0.40;;;;;;;2.00;93.05;97253.06;4984202;28;20054;-67
2023/12/30 02:52:10;;;;;;;0.32;0.32;;;;;;;2.04;92.87;97246.66;4984170;28;20058;-66
2023/12/30 02:54:37;;;;;;;0.30;0.30;;;;;;;1.63;92.22;97176.97;4975617;28;20157;-66
2023/12/30 02:57:04;;;;;;;0.40;0.40;;;;;;;2.03;92.60;97233.31;4984245;28;20050;-65
2023/12/30 02:59:32;;;;;;;0.35;0.35;;;;;;;1.76;92.35;97189.75;4987707;28;20065;-66
2023/12/30 03:01:58;;;;;;;0.30;0.30;;;;;;;1.61;92.78;97187.41;4987901;28;20361;-66
2023/12/30 03:04:25;;;;;;;0.30;0.30;;;;;;;2.06;92.23;97249.91;4987759;28;20069;-66
2023/12/30 03:06:52;;;;;;;0.38;0.38;;;;;;;1.09;92.60;97109.78;5001855;28;20521;-65
2023/12/30 03:09:19;;;;;;;0.30;0.30;;;;;;;2.00;92.03;97253.88;4987630;28;20134;-67
2023/12/30 03:11:46;;;;;;;0.30;0.30;;;;;;;2.06;91.93;97271.75;4987891;28;20076;-65
2023/12/30 03:14:12;;;;;;;0.40;0.40;;;;;;;2.00;91.36;97275.72;5002662;28;20054;-64
2023/12/30 03:16:39;;;;;;;0.40;0.40;;;;;;;1.97;91.26;97267.34;4987118;28;20140;-66
2023/12/30 03:19:06;;;;;;;0.30;0.30;;;;;;;2.05;91.30;97269.34;4986764;28;20061;-64
2023/12/30 03:21:33;;;;;;;0.30;0.30;;;;;;;1.95;91.17;97245.81;4987798;28;20070;-66
2023/12/30 03:24:00;;;;;;;0.35;0.35;;;;;;;-0.16;92.32;96928.13;5002555;28;20058;-64
2023/12/30 03:26:26;;;;;;;0.30;0.30;;;;;;;1.25;94.48;97180.03;4985937;28;20103;-64
2023/12/30 03:28:53;;;;;;;0.40;0.40;;;;;;;0.82;94.99;97096.22;4987592;28;20046;-65
2023/12/30 03:31:28;;;;;;;0.32;0.32;;;;;;;1.94;95.34;97262.50;4987085;28;20080;-65
2023/12/30 03:33:56;;;;;;;0.40;0.40;;;;;;;1.96;95.00;97274.72;4985984;28;20054;-64
2023/12/30 03:36:23;;;;;;;0.40;0.40;;;;;;;1.96;95.00;97271.19;4986914;28;20121;-65
2023/12/30 03:38:52;;;;;;;0.40;0.40;;;;;;;1.94;95.63;97267.97;4986992;28;20062;-64
2023/12/30 03:41:19;;;;;;;0.30;0.30;;;;;;;2.03;95.67;97271.56;4986929;28;20046;-65
2023/12/30 03:43:47;;;;;;;0.30;0.30;;;;;;;2.07;95.14;97272.56;4987157;28;20069;-65
2023/12/30 03:46:14;;;;;;;0.40;0.40;;;;;;;1.82;94.34;97226.75;4985400;28;20073;-65
2023/12/30 03:48:41;;;;;;;0.30;0.30;;;;;;;2.13;94.28;97279.53;4985247;28;20054;-67
2023/12/30 03:51:08;;;;;;;0.30;0.30;;;;;;;2.10;93.43;97288.34;4986970;28;20056;-65
2023/12/30 03:53:34;;;;;;;0.30;0.30;;;;;;;1.07;91.48;97137.38;5001426;28;20418;-65
2023/12/30 03:56:01;;;;;;;0.30;0.30;;;;;;;1.74;88.91;97252.06;4987116;28;20145;-65
2023/12/30 03:58:28;;;;;;;0.30;0.30;;;;;;;1.78;88.90;97270.25;5001816;28;20084;-66
2023/12/30 04:00:55;;;;;;;0.30;0.30;;;;;;;1.72;90.00;97297.97;4979160;28;20058;-65
2023/12/30 04:03:22;;;;;;;0.38;0.38;;;;;;;1.69;90.04;97298.59;4967736;28;20057;-65
2023/12/30 04:05:48;;;;;;;0.30;0.30;;;;;;;1.58;90.64;97302.66;4965518;28;20046;-66
2023/12/30 04:08:15;;;;;;;0.30;0.30;;;;;;;1.58;91.38;97298.81;4966939;28;20593;-66
2023/12/30 04:10:42;;;;;;;0.30;0.30;;;;;;;1.49;91.91;97281.53;4967243;28;20398;-65
2023/12/30 04:13:09;;;;;;;0.30;0.30;;;;;;;1.61;92.54;97302.03;4967106;28;20482;-66
2023/12/30 04:15:37;;;;;;;0.40;0.40;;;;;;;1.18;92.76;97234.22;4965576;28;20434;-66
2023/12/30 04:18:04;;;;;;;0.40;0.40;;;;;;;1.56;92.85;97297.50;4967287;28;20433;-65
2023/12/30 04:20:31;;;;;;;0.30;0.30;;;;;;;1.54;92.79;97292.34;4966759;28;20069;-65
2023/12/30 04:22:58;;;;;;;0.40;0.40;;;;;;;1.58;93.42;97292.56;4981557;28;20137;-65
2023/12/30 04:25:26;;;;;;;0.30;0.30;;;;;;;1.62;92.38;97281.81;4966898;28;20081;-64
2023/12/30 04:27:53;;;;;;;0.40;0.40;;;;;;;1.27;92.80;97229.66;4967199;28;20106;-65
2023/12/30 04:30:20;;;;;;;0.40;0.40;;;;;;;1.76;92.82;97279.84;4966922;28;20069;-65
2023/12/30 04:32:47;;;;;;;0.40;0.40;;;;;;;0.07;92.58;97006.03;4981658;28;20047;-65
2023/12/30 04:35:13;;;;;;;0.30;0.30;;;;;;;1.85;92.28;97292.47;4981321;28;20050;-64
2023/12/30 04:37:40;;;;;;;0.40;0.40;;;;;;;1.66;93.12;97280.09;4981501;28;20046;-65
2023/12/30 04:40:07;;;;;;;0.30;0.30;;;;;;;1.02;94.38;97208.38;4966315;28;20098;-66
2023/12/30 04:42:35;;;;;;;0.30;0.30;;;;;;;1.79;93.47;97309.28;4966560;28;20463;-65
2023/12/30 04:45:02;;;;;;;0.40;0.40;;;;;;;1.83;93.18;97304.81;4966695;28;20062;-64
2023/12/30 04:47:29;;;;;;;0.30;0.30;;;;;;;0.97;92.77;97161.31;4973750;28;20732;-65
2023/12/30 04:49:56;;;;;;;0.30;0.30;;;;;;;1.72;92.20;97303.44;4984451;28;20538;-65
2023/12/30 04:52:23;;;;;;;0.30;0.30;;;;;;;1.48;92.31;97288.13;4986029;28;20394;-66
2023/12/30 04:54:50;;;;;;;0.30;0.30;;;;;;;1.70;92.08;97295.56;4985838;28;20560;-65
2023/12/30 04:57:17;;;;;;;0.30;0.30;;;;;;;1.34;93.30;97270.94;5000601;28;20054;-64
2023/12/30 04:59:44;;;;;;;0.40;0.40;;;;;;;1.37;93.90;97267.63;4985551;28;20509;-66
2023/12/30 05:02:11;;;;;;;0.38;0.38;;;;;;;1.61;93.57;97285.66;4985730;28;20046;-64
2023/12/30 05:04:37;;;;;;;0.30;0.30;;;;;;;1.80;93.96;97310.91;4985426;28;20406;-65
2023/12/30 05:07:04;;;;;;;0.40;0.40;;;;;;;1.79;94.53;97295.63;4999660;28;20062;-67
2023/12/30 05:09:34;;;;;;;0.30;0.30;;;;;;;1.83;94.65;97305.63;4984111;28;21013;-66
2023/12/30 05:12:01;;;;;;;0.30;0.30;;;;;;;1.82;95.49;97308.69;4983700;28;20528;-66
2023/12/30 05:14:28;;;;;;;0.30;0.30;;;;;;;1.62;95.92;97270.88;4985314;28;20065;-66
2023/12/30 05:16:55;;;;;;;0.30;0.30;;;;;;;1.62;95.65;97254.50;4985613;28;20060;-66
2023/12/30 05:19:21;;;;;;;0.30;0.30;;;;;;;1.93;95.63;97307.31;4985202;28;20434;-65
2023/12/30 05:21:51;;;;;;;0.40;0.40;;;;;;;1.62;94.88;97243.59;4999618;28;20525;-64
2023/12/30 05:24:18;;;;;;;0.40;0.40;;;;;;;1.83;95.15;97269.31;4985284;28;20052;-65
2023/12/30 05:26:46;;;;;;;0.30;0.30;;;;;;;1.49;95.70;97207.84;4985212;28;20118;-64
2023/12/30 05:29:13;;;;;;;0.30;0.30;;;;;;;1.65;94.02;97226.59;4985378;28;20069;-65
2023/12/30 05:31:40;;;;;;;0.30;0.30;;;;;;;2.11;92.47;97292.69;4985416;28;20054;-65
2023/12/30 05:34:08;;;;;;;0.30;0.30;;;;;;;-1.21;90.36;96759.81;4984009;28;20057;-66
2023/12/30 05:36:38;;;;;;;0.30;0.30;;;;;;;1.95;90.49;97297.69;4999450;28;20137;-66
2023/12/30 05:39:05;;;;;;;0.30;0.30;;;;;;;1.79;90.00;97306.56;5000063;28;20046;-65
2023/12/30 05:41:32;;;;;;;0.30;0.30;;;;;;;1.12;90.46;97235.41;4983141;28;20061;-66
2023/12/30 05:43:58;;;;;;;0.30;0.30;;;;;;;1.55;90.25;97331.34;4985016;28;20532;-66
2023/12/30 05:46:26;;;;;;;0.30;0.30;;;;;;;1.51;90.52;97309.34;4984894;28;20057;-66
2023/12/30 05:48:53;;;;;;;0.30;0.30;;;;;;;0.64;90.31;97165.28;4984516;28;20137;-66
2023/12/30 05:51:20;;;;;;;0.30;0.30;;;;;;;1.50;90.32;97306.94;4984788;28;20069;-66
2023/12/30 05:53:50;;;;;;;0.30;0.30;;;;;;;0.64;90.14;97163.38;4984617;28;20573;-65
2023/12/30 05:56:23;;;;;;;0.30;0.30;;;;;;;1.10;91.26;97245.84;4980926;28;20059;-65
2023/12/30 05:58:52;;;;;;;0.35;0.35;;;;;;;1.55;91.98;97332.19;4964287;28;20752;-64
2023/12/30 06:01:19;;;;;;;0.30;0.30;;;;;;;1.63;92.48;97325.19;4963620;28;20146;-67
2023/12/30 06:03:47;;;;;;;0.30;0.30;;;;;;;1.74;92.89;97328.53;4978776;28;20050;-67
2023/12/30 06:06:14;;;;;;;0.30;0.30;;;;;;;1.86;93.32;97331.50;4964056;28;20057;-66
2023/12/30 06:08:41;;;;;;;0.40;0.40;;;;;;;1.81;93.62;97317.97;4978400;28;20141;-66
2023/12/30 06:11:08;;;;;;;0.40;0.40;;;;;;;2.10;93.93;97326.59;4978782;28;20054;-67
2023/12/30 06:13:35;;;;;;;0.40;0.40;;;;;;;-0.16;93.20;96958.88;4979825;28;20134;-66
2023/12/30 06:16:03;;;;;;;0.35;0.35;;;;;;;1.87;92.75;97251.19;4965426;28;20063;-66
2023/12/30 06:18:32;;;;;;;0.40;0.40;;;;;;;2.34;91.63;97327.09;4997353;28;20058;-64
2023/12/30 06:21:00;;;;;;;0.40;0.40;;;;;;;1.94;89.33;97317.94;4982766;28;20066;-66
2023/12/30 06:23:28;;;;;;;0.40;0.40;;;;;;;2.57;89.82;97331.44;4984587;28;20075;-64
2023/12/30 06:25:55;;;;;;;0.32;0.32;;;;;;;2.26;89.32;97286.84;4982855;28;20053;-64
2023/12/30 06:28:24;;;;;;;0.30;0.30;;;;;;;2.58;89.60;97267.41;4982971;28;20144;-64
2023/12/30 06:30:51;;;;;;;0.40;0.40;;;;;;;2.82;88.34;97312.44;4983184;28;20047;-65
2023/12/30 06:33:20;;;;;;;0.40;0.40;;;;;;;2.47;87.67;97348.06;5001323;28;20055;-65
2023/12/30 06:35:47;;;;;;;0.40;0.40;;;;;;;2.27;87.20;97340.38;4988232;28;20178;-64
2023/12/30 06:38:15;;;;;;;0.30;0.30;;;;;;;1.81;89.39;97317.97;4986724;28;20064;-63
2023/12/30 06:40:42;;;;;;;0.40;0.40;;;;;;;2.20;89.80;97337.25;4987811;28;20077;-63
2023/12/30 06:43:09;;;;;;;0.40;0.40;;;;;;;2.52;88.69;97335.09;4987794;28;20085;-64
2023/12/30 06:45:36;;;;;;;0.40;0.40;;;;;;;2.60;87.66;97295.25;4988338;28;20050;-64
2023/12/30 06:48:03;;;;;;;0.40;0.40;;;;;;;2.79;85.82;97290.38;4992532;28;20057;-65
2023/12/30 06:50:31;;;;;;;0.40;0.40;;;;;;;1.30;83.65;97008.03;5002858;28;20054;-65
2023/12/30 06:52:58;;;;;;;0.40;0.40;;;;;;;2.19;85.69;97270.06;5002665;28;20537;-64
2023/12/30 06:55:26;;;;;;;0.40;0.40;;;;;;;2.69;87.32;97337.13;4987859;28;20058;-65
2023/12/30 06:58:03;;;;;;;0.40;0.40;;;;;;;3.29;87.12;97337.44;5001541;28;20050;-64
2023/12/30 07:00:30;;;;;;;0.50;0.50;;;;;;;3.57;85.06;97345.13;4988062;28;20058;-65
2023/12/30 07:02:58;;;;;;;0.32;0.32;;;;;;;2.05;82.85;97048.06;5002720;28;20062;-64
2023/12/30 07:05:25;;;;;;;0.40;0.40;;;;;;;3.64;82.65;97318.06;4987828;28;20057;-65
2023/12/30 07:07:52;;;;;;;0.40;0.40;;;;;;;3.84;83.64;97355.78;5002313;28;20068;-65
2023/12/30 07:10:18;;;;;;;0.40;0.40;;;;;;;3.41;84.00;97297.38;5002412;28;20062;-67
2023/12/30 07:12:45;;;;;;;0.40;0.40;;;;;;;3.90;83.43;97343.56;4987332;28;20522;-65
2023/12/30 07:15:12;;;;;;;0.40;0.40;;;;;;;3.26;83.32;97240.34;4987646;28;20070;-65
2023/12/30 07:17:39;;;;;;;0.40;0.40;;;;;;;3.70;82.92;97300.34;4987790;28;20050;-65
2023/12/30 07:20:07;;;;;;;0.40;0.40;;;;;;;4.13;82.61;97345.03;4987384;28;20545;-64
2023/12/30 07:22:34;;;;;;;0.40;0.40;;;;;;;4.25;82.33;97325.22;4987265;28;20084;-65
2023/12/30 07:25:01;;;;;;;0.40;0.40;;;;;;;3.94;81.18;97245.88;4999049;28;20077;-62
2023/12/30 07:27:28;;;;;;;0.40;0.40;;;;;;;4.10;80.42;97266.19;4986437;28;20549;-68
2023/12/30 07:29:55;;;;;;;0.50;0.50;;;;;;;4.50;80.44;97319.69;4983850;28;20532;-60
2023/12/30 07:32:21;;;;;;;0.40;0.40;;;;;;;4.85;79.27;97341.59;4986691;28;20050;-62
2023/12/30 07:34:48;;;;;;;0.40;0.40;;;;;;;4.97;79.71;97347.22;4987826;28;20050;-63
2023/12/30 07:37:15;;;;;;;0.40;0.40;;;;;;;4.97;80.09;97344.47;5001186;28;20057;-66
2023/12/30 07:39:43;;;;;;;0.40;0.40;;;;;;;5.14;80.37;97338.94;4992068;28;20422;-66
2023/12/30 07:42:10;;;;;;;0.40;0.40;;;;;;;4.59;79.45;97216.28;4984969;28;20050;-67
2023/12/30 07:44:37;;;;;;;0.40;0.40;;;;;;;5.57;78.31;97342.31;4980496;28;20113;-63
2023/12/30 07:47:07;;;;;;;0.50;0.50;;;;;;;5.71;78.13;97343.69;4974619;28;20088;-65
2023/12/30 07:49:35;;;;;;;0.50;0.50;;;;;;;3.95;78.85;97061.16;4986548;28;20066;-67
2023/12/30 07:52:02;;;;;;;0.50;0.50;;;;;;;5.54;78.34;97316.31;5000475;28;20057;-65
2023/12/30 07:54:29;;;;;;;0.45;0.45;;;;;;;5.96;78.17;97351.00;4983869;28;20058;-66
2023/12/30 07:56:56;;;;;;;0.50;0.50;;;;;;;5.36;77.56;97275.53;4985188;28;20582;-68
2023/12/30 07:59:23;;;;;;;0.60;0.60;;;;;;;6.08;77.52;97358.56;4966812;28;20047;-65
2023/12/30 08:01:51;;;;;;;0.40;0.40;;;;;;;6.02;78.00;97348.88;4994818;28;20046;-70
2023/12/30 08:04:18;;;;;;;0.55;0.55;;;;;;;6.33;77.78;97360.31;4986080;28;20094;-68
2023/12/30 08:06:44;;;;;;;0.50;0.50;;;;;;;6.45;78.03;97368.63;4985552;28;20054;-62
2023/12/30 08:09:11;;;;;;;0.60;0.60;;;;;;;5.70;77.61;97223.94;4986435;28;20089;-68
2023/12/30 08:11:38;;;;;;;0.55;0.55;;;;;;;6.55;78.25;97321.44;4985802;28;20250;-62
2023/12/30 08:14:24;;;;;;;0.52;0.52;;;;;;;6.24;76.91;97241.31;4985753;28;20132;-68
2023/12/30 08:16:51;;;;;;;0.60;0.60;;;;;;;6.75;76.28;97300.53;4985152;28;20105;-65
2023/12/30 08:19:17;;;;;;;0.60;0.60;;;;;;;6.73;75.96;97270.59;4985663;28;20811;-70
2023/12/30 08:21:45;;;;;;;0.57;0.57;;;;;;;6.41;74.36;97208.13;4985228;28;20579;-65
2023/12/30 08:24:14;;;;;;;0.60;0.60;;;;;;;7.68;73.95;97371.06;4985123;28;20054;-61
2023/12/30 08:26:41;;;;;;;0.70;0.70;;;;;;;7.92;73.50;97366.72;4983356;28;20046;-65
2023/12/30 08:29:09;;;;;;;0.70;0.70;;;;;;;8.09;72.43;97372.81;4983667;28;20485;-61
2023/12/30 08:31:36;;;;;;;0.70;0.70;;;;;;;7.82;71.37;97306.50;4980387;28;20459;-67
2023/12/30 08:34:04;;;;;;;0.70;0.70;;;;;;;8.38;69.87;97368.97;4985706;28;20058;-63
2023/12/30 08:36:31;;;;;;;0.70;0.70;;;;;;;8.25;70.12;97331.53;4985842;28;20054;-66
2023/12/30 08:38:57;;;;;;;0.70;0.70;;;;;;;8.75;70.20;97359.47;4982939;28;20055;-65
2023/12/30 08:41:27;;;;;;;0.80;0.80;;;;;;;8.89;69.87;97348.81;4984289;28;20418;-64
2023/12/30 08:43:56;;;;;;;0.80;0.80;;;;;;;9.15;68.63;97365.75;4985237;28;20626;-64
2023/12/30 08:46:23;;;;;;;0.80;0.80;;;;;;;9.26;68.27;97361.31;4983839;28;20055;-66
2023/12/30 08:48:50;;;;;;;0.80;0.80;;;;;;;9.27;68.17;97340.78;4982084;28;20057;-66
2023/12/30 08:51:17;;;;;;;0.80;0.80;;;;;;;9.37;67.37;97304.34;4994532;28;20059;-65
2023/12/30 08:53:44;;;;;;;0.80;0.80;;;;;;;9.47;66.65;97325.91;4984488;28;20053;-61
2023/12/30 08:56:11;;;;;;;0.80;0.80;;;;;;;9.58;64.84;97324.22;4986349;28;20050;-65
2023/12/30 08:58:38;;;;;;;0.80;0.80;;;;;;;9.06;64.49;97213.09;4985378;28;20540;-65
2023/12/30 09:01:06;;;;;;;0.80;0.80;;;;;;;9.91;64.58;97332.94;4980989;28;20050;-66
2023/12/30 09:03:33;;;;;;;0.80;0.80;;;;;;;9.83;65.79;97325.63;4984788;28;20053;-62
2023/12/30 09:06:00;;;;;;;0.80;0.80;;;;;;;8.99;67.32;97224.00;4984663;28;20053;-65
2023/12/30 09:08:26;;;;;;;0.70;0.70;;;;;;;9.80;65.71;97325.56;4984988;28;20112;-62
2023/12/30 09:10:54;;;;;;;0.80;0.80;;;;;;;9.47;65.55;97256.78;4984345;28;20406;-63
2023/12/30 09:13:21;;;;;;;0.80;0.80;;;;;;;9.44;68.99;97321.09;4984993;28;20061;-65
2023/12/30 09:15:48;;;;;;;0.80;0.80;;;;;;;9.47;66.32;97317.63;5015157;28;20509;-62
2023/12/30 09:18:15;;;;;;;0.80;0.80;;;;;;;9.66;64.33;97314.94;4984791;28;20497;-64
2023/12/30 09:20:43;;;;;;;0.80;0.80;;;;;;;10.00;64.15;97314.22;4984466;28;20069;-64
2023/12/30 09:23:10;;;;;;;0.90;0.90;;;;;;;9.87;64.68;97254.59;4984337;28;20046;-60
2023/12/30 09:25:37;;;;;;;0.80;0.80;;;;;;;10.15;63.66;97298.72;4984996;28;20086;-66
2023/12/30 09:28:04;;;;;;;0.80;0.80;;;;;;;8.81;63.12;97057.00;4983950;28;20062;-61
2023/12/30 09:30:31;;;;;;;0.90;0.90;;;;;;;10.56;62.50;97298.88;4979088;28;20586;-68
2023/12/30 09:32:58;;;;;;;0.90;0.90;;;;;;;10.28;61.72;97226.28;4965386;28;20051;-65
2023/12/30 09:35:25;;;;;;;0.88;0.88;;;;;;;10.96;60.91;97289.38;4965623;28;20058;-66
2023/12/30 09:37:52;;;;;;;0.90;0.90;;;;;;;11.14;60.47;97290.50;4965518;28;20062;-65
2023/12/30 09:40:19;;;;;;;0.90;0.90;;;;;;;11.40;60.38;97285.03;4965816;28;20051;-67
2023/12/30 09:42:49;;;;;;;0.90;0.90;;;;;;;11.15;60.02;97242.19;4979864;28;20055;-67
2023/12/30 09:45:16;;;;;;;1.00;1.00;;;;;;;11.66;60.08;97283.16;4965911;28;20584;-65
2023/12/30 09:47:45;;;;;;;0.80;0.80;;;;;;;11.85;60.21;97271.16;4965075;28;20431;-64
2023/12/30 09:50:13;;;;;;;0.90;0.90;;;;;;;12.21;59.05;97278.84;4980662;28;20101;-65
2023/12/30 09:52:40;;;;;;;0.98;0.98;;;;;;;12.40;58.81;97275.94;4984880;28;20062;-66
2023/12/30 09:55:07;;;;;;;1.10;1.10;;;;;;;12.52;57.53;97261.03;4984479;28;20069;-66
2023/12/30 09:57:34;;;;;;;1.00;1.00;;;;;;;12.54;57.04;97228.09;4984676;28;20129;-64
2023/12/30 10:00:05;;;;;;;1.10;1.10;;;;;;;12.74;56.37;97241.44;4984517;28;20556;-67
2023/12/30 10:02:34;;;;;;;1.05;1.05;;;;;;;13.12;55.92;97255.00;4984883;28;20062;-65
2023/12/30 10:05:01;;;;;;;1.10;1.10;;;;;;;13.36;55.66;97254.47;4999626;28;20134;-63
2023/12/30 10:07:31;;;;;;;1.10;1.10;;;;;;;13.53;55.45;97239.91;4984242;28;20156;-64
2023/12/30 10:09:58;;;;;;;1.10;1.10;;;;;;;13.87;54.91;97248.91;4999317;28;20070;-64
2023/12/30 10:12:25;;;;;;;1.15;1.15;;;;;;;14.09;53.61;97249.84;4984458;28;20073;-63
2023/12/30 10:14:52;;;;;;;1.20;1.20;;;;;;;13.97;53.47;97191.69;4999095;28;20055;-64
2023/12/30 10:17:20;;;;;;;1.00;1.00;;;;;;;14.36;51.61;97231.75;4983870;28;20073;-67
2023/12/30 10:19:47;;;;;;;1.20;1.20;;;;;;;14.49;51.30;97241.38;4984279;28;20163;-65
2023/12/30 10:22:15;;;;;;;1.23;1.23;;;;;;;14.47;51.74;97225.03;4999100;28;20534;-66
2023/12/30 10:24:42;;;;;;;1.20;1.20;;;;;;;14.70;51.24;97235.91;4984859;28;20078;-67
2023/12/30 10:27:10;;;;;;;1.40;1.40;;;;;;;14.63;50.51;97233.06;4983170;28;20462;-66
2023/12/30 10:29:38;;;;;;;1.40;1.40;;;;;;;14.60;49.94;97215.16;4984696;28;20050;-65
2023/12/30 10:32:22;;;;;;;1.30;1.30;;;;;;;11.32;50.04;96649.09;4984623;28;20547;-66
2023/12/30 10:34:50;;;;;;;;;;;;;;;15.03;49.89;97227.25;4985502;28;20105;-65
2023/12/30 10:37:22;;;;;;;1.30;1.30;;;;;;;14.96;49.31;97221.63;4984840;28;19952;-65
2023/12/30 10:39:53;;;;;;;1.35;1.35;;;;;;;14.80;48.61;97154.25;4984791;28;20422;-66
2023/12/30 10:42:20;;;;;;;1.40;1.40;;;;;;;15.10;48.04;97193.75;4984519;28;20493;-66
2023/12/30 10:44:46;;;;;;;1.40;1.40;;;;;;;15.29;48.82;97207.34;4999130;28;20054;-68
2023/12/30 10:47:15;;;;;;;1.35;1.35;;;;;;;15.35;48.13;97191.78;4983825;28;20134;-68
2023/12/30 10:49:54;;;;;;;1.40;1.40;;;;;;;15.38;48.14;97199.41;4983761;28;20548;-68
2023/12/30 10:52:26;;;;;;;1.30;1.30;;;;;;;15.29;47.50;97182.22;4998745;28;20489;-65
2023/12/30 10:55:04;;;;;;;1.50;1.50;;;;;;;15.46;47.28;97184.25;4984115;28;20157;-65
2023/12/30 10:57:36;;;;;;;1.50;1.50;;;;;;;15.22;47.35;97134.78;4982776;28;20054;-66
2023/12/30 11:00:09;;;;;;;1.50;1.50;;;;;;;15.21;47.31;97155.50;4982953;28;20562;-65
2023/12/30 11:02:36;;;;;;;;;;;;;;;15.42;47.07;97183.47;4984168;28;20054;-67
2023/12/30 11:05:07;;;;;;;1.33;1.33;;;;;;;15.36;47.66;97179.47;4998822;28;20356;-65
2023/12/30 11:07:34;;;;;;;1.50;1.50;;;;;;;14.91;47.11;97147.50;4983304;28;20517;-65
2023/12/30 11:10:23;;;;;;;1.30;1.30;;;;;;;14.55;47.46;97156.19;4984291;28;20070;-66
2023/12/30 11:12:53;;;;;;;1.50;1.50;;;;;;;14.71;47.34;97125.94;4999109;28;20050;-66
2023/12/30 11:15:31;;;;;;;1.40;1.40;;;;;;;14.93;46.85;97116.44;4965902;28;20129;-64
2023/12/30 11:17:58;;;;;;;1.30;1.30;;;;;;;15.24;47.12;97154.72;4979162;28;20054;-66
2023/12/30 11:20:27;;;;;;;1.15;1.15;;;;;;;15.43;46.96;97151.56;4967954;28;20115;-66
2023/12/30 11:22:57;;;;;;;1.48;1.48;;;;;;;14.95;47.31;97147.53;4967725;28;20441;-66
2023/12/30 11:25:34;;;;;;;1.13;1.13;;;;;;;15.22;46.92;97139.56;4967942;28;20067;-66
2023/12/30 11:28:17;;;;;;;1.40;1.40;;;;;;;15.22;46.61;97145.16;4967841;28;20055;-66
2023/12/30 11:30:59;;;;;;;1.40;1.40;;;;;;;15.25;47.03;97150.75;4982134;28;20505;-65
2023/12/30 11:33:26;;;;;;;1.35;1.35;;;;;;;14.08;46.54;96969.72;4966453;28;20066;-73
2023/12/30 11:35:54;;;;;;;1.27;1.27;;;;;;;15.52;46.62;97140.81;4982951;28;20055;-73
2023/12/30 11:38:24;;;;;;;1.30;1.30;;;;;;;15.20;47.25;97142.75;4967994;28;20062;-72
2023/12/30 11:40:54;;;;;;;1.40;1.40;;;;;;;15.34;47.33;97137.19;4966883;28;20503;-72
2023/12/30 11:43:22;;;;;;;1.15;1.15;;;;;;;15.05;47.16;97068.59;4982861;28;20525;-71
2023/12/30 11:45:50;;;;;;;1.33;1.33;;;;;;;15.39;47.18;97131.22;4968488;28;20126;-71